Time;durP1;ratioP1;P1;durP2;ratioP2;P2;SDS_P1;SDS_P2;PMS_P1;PMS_P2;Temp;Humidity;BMP_temperature;BMP_pressure;BME280_temperature;BME280_humidity;BME280_pressure;Samples;Min_cycle;Max_cycle;Signal;HPM_P1;HPM_P2
2020/12/10 00:00:35;;;;;;;14.30;5.67;;;;;;;-3.49;59.06;101349.67;1698658;84;21366;-64
2020/12/10 00:03:02;;;;;;;17.32;6.37;;;;;;;-3.48;58.89;101351.40;1698717;84;21864;-63
2020/12/10 00:05:30;;;;;;;15.15;5.83;;;;;;;-3.48;58.89;101351.40;1699056;84;21161;-63
2020/12/10 00:07:58;;;;;;;15.03;6.05;;;;;;;-3.49;59.07;101346.99;1700252;84;21418;-62
2020/12/10 00:10:25;;;;;;;18.57;6.72;;;;;;;-3.53;59.02;101335.11;1700101;83;21410;-64
2020/12/10 00:12:52;;;;;;;18.87;6.67;;;;;;;-3.55;59.07;101336.14;1700059;83;21344;-62
2020/12/10 00:15:19;;;;;;;16.37;5.75;;;;;;;-3.55;59.14;101332.98;1700123;83;21197;-62
2020/12/10 00:17:47;;;;;;;17.85;6.17;;;;;;;-3.55;59.14;101330.31;1709663;83;21261;-61
2020/12/10 00:20:15;;;;;;;18.50;6.25;;;;;;;-3.54;59.12;101327.16;1714057;83;21159;-63
2020/12/10 00:22:42;;;;;;;14.63;5.15;;;;;;;-3.55;59.16;101324.09;1713851;83;21159;-62
2020/12/10 00:25:09;;;;;;;13.62;5.42;;;;;;;-3.61;59.31;101324.43;1713775;83;21920;-62
2020/12/10 00:27:37;;;;;;;17.52;5.53;;;;;;;-3.61;59.31;101324.43;1713913;83;21588;-63
2020/12/10 00:30:08;;;;;;;15.38;5.83;;;;;;;-3.61;59.30;101326.63;1713728;83;21402;-61
2020/12/10 00:32:36;;;;;;;15.88;6.10;;;;;;;-3.60;59.35;101318.98;1713803;83;21807;-62
2020/12/10 00:35:08;;;;;;;19.67;6.83;;;;;;;-3.58;59.35;101326.94;1713843;83;21377;-62
2020/12/10 00:37:35;;;;;;;14.85;5.72;;;;;;;-3.58;59.35;101318.42;1713698;82;21330;-62
2020/12/10 00:40:07;;;;;;;16.57;6.00;;;;;;;-3.63;59.33;101326.33;1713741;83;21474;-61
2020/12/10 00:42:35;;;;;;;13.50;5.17;;;;;;;-3.69;59.52;101323.52;1714005;83;21151;-63
2020/12/10 00:45:03;;;;;;;20.60;5.67;;;;;;;-3.76;59.53;101316.77;1713838;83;22231;-62
2020/12/10 00:47:31;;;;;;;15.53;5.35;;;;;;;-3.76;59.53;101316.77;1713891;83;21171;-63
2020/12/10 00:50:00;;;;;;;14.07;5.70;;;;;;;-3.77;59.78;101313.70;1713827;83;21271;-62
2020/12/10 00:52:29;;;;;;;14.60;5.83;;;;;;;-3.74;59.83;101308.17;1713659;83;21198;-64
2020/12/10 00:54:59;;;;;;;16.17;5.37;;;;;;;-3.70;59.83;101311.55;1713546;83;21134;-62
2020/12/10 00:57:28;;;;;;;16.20;5.35;;;;;;;-3.66;59.69;101299.24;1713816;83;21464;-61
2020/12/10 00:59:56;;;;;;;16.52;6.35;;;;;;;-3.66;59.69;101304.60;1713731;83;21215;-62
2020/12/10 01:02:23;;;;;;;12.98;5.22;;;;;;;-3.69;59.74;101296.73;1713793;83;21389;-62
2020/12/10 01:04:51;;;;;;;14.83;5.65;;;;;;;-3.65;59.74;101292.08;1712821;83;21159;-62
2020/12/10 01:07:18;;;;;;;15.60;5.10;;;;;;;-3.66;59.60;101292.55;1713619;83;21945;-62
2020/12/10 01:09:45;;;;;;;15.10;5.42;;;;;;;-3.71;59.61;101299.97;1713854;83;21465;-62
2020/12/10 01:12:14;;;;;;;14.30;5.00;;;;;;;-3.76;59.76;101298.02;1713790;83;21913;-62
2020/12/10 01:14:41;;;;;;;17.65;5.45;;;;;;;-3.76;59.77;101302.04;1713822;83;21906;-62
2020/12/10 01:17:08;;;;;;;15.30;5.70;;;;;;;-3.75;59.84;101309.13;1712873;83;21443;-63
2020/12/10 01:19:36;;;;;;;16.12;5.83;;;;;;;-3.71;59.86;101304.46;1710558;84;21417;-62
2020/12/10 01:22:03;;;;;;;16.35;5.28;;;;;;;-3.70;59.74;101296.34;1710535;82;21149;-62
2020/12/10 01:24:31;;;;;;;13.03;5.15;;;;;;;-3.72;59.72;101292.89;1710413;82;21177;-63
2020/12/10 01:26:59;;;;;;;12.75;5.03;;;;;;;-3.72;59.65;101302.73;1710422;82;21196;-62
2020/12/10 01:29:26;;;;;;;14.55;5.65;;;;;;;-3.75;59.63;101297.08;1710368;83;21407;-61
2020/12/10 01:31:53;;;;;;;14.50;5.08;;;;;;;-3.77;59.63;101300.31;1710431;82;21447;-63
2020/12/10 01:34:21;;;;;;;11.97;5.70;;;;;;;-3.79;59.69;101294.65;1710572;82;21172;-63
2020/12/10 01:36:48;;;;;;;14.55;5.05;;;;;;;-3.80;59.69;101287.56;1710474;82;21439;-63
2020/12/10 01:39:16;;;;;;;14.15;5.30;;;;;;;-3.80;59.69;101293.78;1710713;82;21464;-63
2020/12/10 01:41:45;;;;;;;13.53;4.58;;;;;;;-3.84;59.69;101286.88;1710684;82;21387;-62
2020/12/10 01:44:13;;;;;;;10.85;4.30;;;;;;;-3.86;59.76;101290.11;1710613;82;21368;-62
2020/12/10 01:46:42;;;;;;;15.00;4.85;;;;;;;-3.89;59.73;101278.23;1710461;84;21882;-63
2020/12/10 01:49:09;;;;;;;15.65;4.90;;;;;;;-3.94;59.83;101281.59;1710409;84;21452;-63
2020/12/10 01:51:37;;;;;;;12.33;4.85;;;;;;;-3.96;59.90;101283.49;1710380;82;22361;-63
2020/12/10 01:54:06;;;;;;;10.80;4.67;;;;;;;-3.96;59.85;101290.19;1710438;82;21141;-63
2020/12/10 01:56:34;;;;;;;13.32;5.30;;;;;;;-4.03;59.85;101286.11;1710301;82;21445;-63
2020/12/10 01:59:03;;;;;;;10.53;4.47;;;;;;;-4.05;60.03;101291.55;1710494;82;21165;-64
2020/12/10 02:01:32;;;;;;;12.73;5.00;;;;;;;-4.05;60.08;101288.88;1710543;82;21853;-62
2020/12/10 02:04:01;;;;;;;15.28;4.83;;;;;;;-4.05;60.07;101284.86;1710074;83;21244;-64
2020/12/10 02:06:28;;;;;;;15.00;4.60;;;;;;;-4.05;60.00;101292.88;1710457;82;21396;-64
2020/12/10 02:08:56;;;;;;;10.38;4.70;;;;;;;-4.05;60.00;101292.88;1710703;82;21391;-62
2020/12/10 02:11:24;;;;;;;13.88;4.80;;;;;;;-4.12;60.00;101281.26;1710554;84;21403;-63
2020/12/10 02:13:52;;;;;;;14.78;4.10;;;;;;;-4.12;60.00;101281.26;1710576;84;21189;-62
2020/12/10 02:16:20;;;;;;;10.75;4.47;;;;;;;-4.19;60.02;101286.94;1710522;84;21931;-63
2020/12/10 02:18:56;;;;;;;12.82;4.28;;;;;;;-4.22;60.14;101280.89;1702358;82;21186;-65
2020/12/10 02:21:24;;;;;;;11.90;4.65;;;;;;;-4.22;60.12;101283.09;1700274;83;21756;-62
2020/12/10 02:23:54;;;;;;;12.05;4.75;;;;;;;-4.27;60.20;101282.94;1700780;83;21189;-62
2020/12/10 02:26:26;;;;;;;12.78;4.67;;;;;;;-4.33;60.22;101272.57;1672074;85;21420;-62
2020/12/10 02:29:00;;;;;;;13.00;4.70;;;;;;;-4.39;60.34;101265.73;1671811;84;21459;-62
2020/12/10 02:31:32;;;;;;;9.65;4.60;;;;;;;-4.41;60.42;101265.42;1671977;85;21873;-63
2020/12/10 02:34:03;;;;;;;13.22;4.70;;;;;;;-4.45;60.47;101268.73;1671875;84;21189;-62
2020/12/10 02:36:31;;;;;;;11.12;4.62;;;;;;;-4.47;60.53;101259.92;1672220;84;21550;-63
2020/12/10 02:38:59;;;;;;;13.72;5.33;;;;;;;-4.48;60.69;101247.50;1671910;85;21388;-63
2020/12/10 02:41:26;;;;;;;12.43;4.95;;;;;;;-4.48;60.74;101244.83;1671885;85;21177;-63
2020/12/10 02:43:55;;;;;;;12.55;4.53;;;;;;;-4.47;60.72;101234.05;1671715;85;21193;-63
2020/12/10 02:46:23;;;;;;;12.90;4.70;;;;;;;-4.43;60.73;101235.22;1671927;85;21448;-62
2020/12/10 02:48:50;;;;;;;11.68;4.33;;;;;;;-4.42;60.66;101240.48;1671954;84;21441;-62
2020/12/10 02:51:18;;;;;;;10.65;4.55;;;;;;;-4.41;60.63;101237.34;1671903;84;21882;-62
2020/12/10 02:53:45;;;;;;;19.75;5.37;;;;;;;-4.40;60.57;101237.26;1672022;84;21336;-62
2020/12/10 02:56:14;;;;;;;14.60;4.95;;;;;;;-4.41;60.62;101244.89;1671965;84;21209;-62
2020/12/10 02:58:42;;;;;;;13.60;4.80;;;;;;;-4.39;60.59;101237.65;1671908;85;21965;-63
2020/12/10 03:01:10;;;;;;;12.45;4.65;;;;;;;-4.40;60.53;101232.38;1672028;84;22028;-63
2020/12/10 03:03:37;;;;;;;10.35;4.30;;;;;;;-4.46;60.61;101226.89;1672221;84;21202;-63
2020/12/10 03:06:08;;;;;;;17.40;5.97;;;;;;;-4.43;60.71;101227.20;1700053;83;21550;-62
2020/12/10 03:08:36;;;;;;;17.70;5.03;;;;;;;-4.43;60.67;101237.42;1700182;84;21388;-62
2020/12/10 03:11:04;;;;;;;12.37;4.50;;;;;;;-4.42;60.68;101239.63;1700284;83;21142;-62
2020/12/10 03:13:32;;;;;;;14.73;5.15;;;;;;;-4.41;60.69;101234.67;1700051;83;21181;-61
2020/12/10 03:15:59;;;;;;;12.15;5.03;;;;;;;-4.41;60.69;101234.19;1700147;83;21484;-63
2020/12/10 03:18:26;;;;;;;13.62;4.90;;;;;;;-4.40;60.64;101232.38;1705171;83;21224;-62
2020/12/10 03:20:54;;;;;;;14.33;5.33;;;;;;;-4.44;60.63;101234.36;1710517;82;21786;-63
2020/12/10 03:23:21;;;;;;;10.70;4.17;;;;;;;-4.48;60.76;101238.14;1710539;84;21169;-62
2020/12/10 03:25:49;;;;;;;11.93;5.10;;;;;;;-4.47;60.85;101245.22;1710558;82;21855;-63
2020/12/10 03:28:16;;;;;;;11.28;4.85;;;;;;;-4.47;60.85;101249.23;1710566;84;21884;-63
2020/12/10 03:30:44;;;;;;;15.60;4.85;;;;;;;-4.49;60.88;101239.95;1710671;82;21415;-62
2020/12/10 03:33:11;;;;;;;14.53;5.08;;;;;;;-4.52;60.87;101236.58;1710478;82;21205;-63
2020/12/10 03:35:38;;;;;;;11.90;4.50;;;;;;;-4.56;60.97;101234.97;1710457;84;21418;-64
2020/12/10 03:38:06;;;;;;;20.72;4.95;;;;;;;-4.58;61.05;101231.52;1710626;84;21201;-61
2020/12/10 03:40:33;;;;;;;15.60;4.95;;;;;;;-4.59;61.17;101218.62;1710457;84;21153;-64
2020/12/10 03:43:00;;;;;;;16.00;5.10;;;;;;;-4.58;61.15;101209.66;1710505;84;21351;-62
2020/12/10 03:45:28;;;;;;;15.55;5.62;;;;;;;-4.60;61.21;101216.03;1710530;82;21138;-62
2020/12/10 03:47:55;;;;;;;16.67;5.87;;;;;;;-4.64;61.30;101219.81;1710479;83;21968;-63
2020/12/10 03:50:24;;;;;;;12.00;4.72;;;;;;;-4.63;61.41;101202.34;1710580;82;21206;-62
2020/12/10 03:52:51;;;;;;;13.30;4.87;;;;;;;-4.59;61.49;101200.38;1710560;82;21359;-63
2020/12/10 03:55:19;;;;;;;15.60;6.00;;;;;;;-4.55;61.34;101204.65;1710471;82;21365;-62
2020/12/10 03:57:46;;;;;;;14.63;4.83;;;;;;;-4.56;61.37;101203.75;1710463;82;21900;-62
2020/12/10 04:00:14;;;;;;;11.80;5.05;;;;;;;-4.54;61.35;101202.36;1710505;82;21141;-62
2020/12/10 04:02:41;;;;;;;16.05;5.58;;;;;;;-4.53;61.43;101198.74;1710751;82;21801;-62
2020/12/10 04:05:09;;;;;;;12.70;5.12;;;;;;;-4.52;61.40;101193.79;1709989;84;21852;-62
2020/12/10 04:07:36;;;;;;;15.60;5.90;;;;;;;-4.49;61.41;101182.92;1710508;84;21151;-62
2020/12/10 04:10:04;;;;;;;13.53;5.05;;;;;;;-4.47;61.40;101187.72;1710478;82;21853;-63
2020/12/10 04:12:32;;;;;;;20.45;5.60;;;;;;;-4.44;61.37;101179.53;1710526;84;21488;-62
2020/12/10 04:14:59;;;;;;;15.08;5.10;;;;;;;-4.45;61.35;101179.14;1710518;83;21859;-61
2020/12/10 04:17:26;;;;;;;12.03;5.42;;;;;;;-4.46;61.39;101169.39;1710453;82;21428;-61
2020/12/10 04:19:54;;;;;;;15.48;6.00;;;;;;;-4.44;61.43;101172.84;1710593;82;21391;-62
2020/12/10 04:22:22;;;;;;;16.40;5.97;;;;;;;-4.44;61.47;101174.18;1710503;84;21168;-61
2020/12/10 04:24:49;;;;;;;19.60;6.05;;;;;;;-4.40;61.51;101170.86;1710501;84;21870;-62
2020/12/10 04:27:17;;;;;;;13.30;4.87;;;;;;;-4.39;61.51;101176.13;1710569;84;21335;-62
2020/12/10 04:29:44;;;;;;;15.30;5.30;;;;;;;-4.36;61.46;101181.78;1710506;84;21165;-62
2020/12/10 04:32:11;;;;;;;16.27;6.30;;;;;;;-4.40;61.38;101174.41;1710445;82;21619;-62
2020/12/10 04:34:39;;;;;;;20.35;6.33;;;;;;;-4.42;61.46;101174.09;1710466;84;21372;-63
2020/12/10 04:37:07;;;;;;;18.00;5.72;;;;;;;-4.43;61.48;101176.37;1710391;82;21420;-63
2020/12/10 04:39:36;;;;;;;25.65;6.47;;;;;;;-4.42;61.63;101171.42;1707561;82;21154;-65
2020/12/10 04:42:08;;;;;;;18.48;6.12;;;;;;;-4.41;61.61;101175.34;1710417;82;21138;-63
2020/12/10 04:44:32;;;;;;;18.00;6.83;;;;;;;-4.42;61.59;101182.98;1710686;82;22155;-63
2020/12/10 04:47:01;;;;;;;23.30;6.80;;;;;;;-4.44;61.67;101175.98;1710452;82;21548;-62
2020/12/10 04:49:28;;;;;;;20.55;7.05;;;;;;;-4.44;61.74;101177.33;1710433;82;21452;-62
2020/12/10 04:51:57;;;;;;;20.95;6.37;;;;;;;-4.41;61.75;101176.69;1729534;82;21151;-63
2020/12/10 04:54:24;;;;;;;15.75;5.83;;;;;;;-4.37;61.67;101171.56;1710450;82;21210;-62
2020/12/10 04:56:52;;;;;;;13.58;6.10;;;;;;;-4.37;61.68;101172.90;1710501;82;21846;-62
2020/12/10 04:59:19;;;;;;;12.45;5.37;;;;;;;-4.34;61.67;101173.20;1705624;82;21988;-61
2020/12/10 05:01:46;;;;;;;15.10;5.40;;;;;;;-4.30;61.65;101169.41;1710479;84;21137;-63
2020/12/10 05:04:14;;;;;;;18.27;5.72;;;;;;;-4.28;61.58;101163.50;1710396;82;21960;-62
2020/12/10 05:06:50;;;;;;;15.88;5.72;;;;;;;-4.25;61.57;101159.32;1710422;82;21160;-63
2020/12/10 05:09:18;;;;;;;20.32;6.37;;;;;;;-4.21;61.59;101160.41;1710684;84;21933;-63
2020/12/10 05:11:45;;;;;;;15.30;6.10;;;;;;;-4.15;61.49;101160.06;1710406;84;21168;-60
2020/12/10 05:14:12;;;;;;;16.82;5.67;;;;;;;-4.15;61.39;101166.75;1710478;82;21371;-62
2020/12/10 05:16:40;;;;;;;13.55;5.40;;;;;;;-4.16;61.39;101165.02;1710693;82;21155;-62
2020/12/10 05:19:20;;;;;;;13.43;5.42;;;;;;;-4.17;61.41;101165.98;1710293;82;21862;-64
2020/12/10 05:22:05;;;;;;;19.42;6.85;;;;;;;-4.19;61.44;101164.33;1710704;82;21864;-64
2020/12/10 05:24:34;;;;;;;25.70;8.83;;;;;;;-4.17;61.58;101165.98;1710543;82;21153;-62
2020/12/10 05:27:19;;;;;;;24.12;8.15;;;;;;;-4.13;61.56;101172.50;1710330;84;21956;-64
2020/12/10 05:29:47;;;;;;;18.00;6.55;;;;;;;-4.13;61.60;101181.38;1710538;84;21797;-62
2020/12/10 05:32:40;;;;;;;18.00;6.15;;;;;;;-4.07;61.63;101180.18;1710576;82;21869;-61
2020/12/10 05:35:20;;;;;;;22.40;6.30;;;;;;;-4.07;61.61;101180.18;1710173;82;21509;-63
2020/12/10 05:37:48;;;;;;;18.92;7.97;;;;;;;-4.10;61.54;101187.91;1710578;82;21149;-62
2020/12/10 05:40:16;;;;;;;16.40;5.80;;;;;;;-4.13;61.66;101188.55;1710494;82;21411;-64
2020/12/10 05:42:47;;;;;;;20.40;7.62;;;;;;;-4.13;61.72;101191.22;1710723;82;21844;-62
2020/12/10 05:45:20;;;;;;;20.10;7.67;;;;;;;-4.18;61.74;101186.99;1710800;82;21310;-62
2020/12/10 05:47:54;;;;;;;16.67;6.40;;;;;;;-4.24;61.92;101192.68;1708747;82;21169;-64
2020/12/10 05:50:27;;;;;;;18.02;6.37;;;;;;;-4.26;62.17;101186.55;1648716;85;21192;-63
2020/12/10 05:53:10;;;;;;;21.05;7.47;;;;;;;-4.26;62.31;101185.21;1710458;83;21912;-64
2020/12/10 05:55:41;;;;;;;19.52;7.53;;;;;;;-4.28;62.50;101176.88;1710595;83;21173;-62
2020/12/10 05:58:09;;;;;;;21.65;7.62;;;;;;;-4.26;62.69;101189.23;1710529;83;21766;-63
2020/12/10 06:00:37;;;;;;;19.70;7.47;;;;;;;-4.18;62.81;101186.13;1710478;82;21428;-63
2020/12/10 06:03:05;;;;;;;26.65;8.08;;;;;;;-4.13;62.83;101187.21;1710583;82;21351;-63
2020/12/10 06:05:33;;;;;;;23.15;8.10;;;;;;;-4.09;62.89;101178.06;1709955;82;21213;-63
2020/12/10 06:08:08;;;;;;;19.10;7.70;;;;;;;-4.06;62.92;101181.91;1705525;82;21848;-63
2020/12/10 06:10:40;;;;;;;22.87;8.25;;;;;;;-4.02;63.01;101179.45;1710434;82;21169;-62
2020/12/10 06:13:08;;;;;;;18.90;7.42;;;;;;;-3.95;63.06;101172.80;1710501;82;21694;-62
2020/12/10 06:15:35;;;;;;;27.03;8.07;;;;;;;-3.91;62.99;101177.03;1710613;84;21845;-63
2020/12/10 06:18:11;;;;;;;16.00;6.72;;;;;;;-3.92;63.09;101176.64;1710411;82;21275;-62
2020/12/10 06:20:41;;;;;;;22.52;6.55;;;;;;;-3.88;63.17;101174.22;1710479;82;21551;-63
2020/12/10 06:23:31;;;;;;;25.35;8.25;;;;;;;-3.85;63.29;101176.72;1710500;82;21184;-63
2020/12/10 06:26:20;;;;;;;22.40;7.62;;;;;;;-3.81;63.33;101164.02;1710582;82;21379;-64
2020/12/10 06:28:47;;;;;;;17.50;7.30;;;;;;;-3.77;63.31;101164.23;1705291;82;21480;-64
2020/12/10 06:31:14;;;;;;;22.42;7.80;;;;;;;-3.79;63.31;101150.94;1710425;84;21978;-63
2020/12/10 06:33:46;;;;;;;21.95;7.70;;;;;;;-3.75;63.39;101151.14;1710368;84;21209;-64
2020/12/10 06:36:28;;;;;;;26.02;8.63;;;;;;;-3.75;63.49;101161.86;1710501;82;21343;-64
2020/12/10 06:38:57;;;;;;;24.72;10.30;;;;;;;-3.71;63.58;101166.09;1710558;84;21153;-64
2020/12/10 06:41:25;;;;;;;32.50;13.18;;;;;;;-3.63;63.61;101161.63;1710544;82;21507;-61
2020/12/10 06:43:53;;;;;;;24.40;8.83;;;;;;;-3.59;63.64;101158.68;1710634;82;21437;-64
2020/12/10 06:46:21;;;;;;;24.40;8.93;;;;;;;-3.51;63.71;101143.50;1710502;82;21161;-62
2020/12/10 06:48:50;;;;;;;31.20;11.38;;;;;;;-3.44;63.67;101141.33;1710513;82;21898;-62
2020/12/10 06:51:21;;;;;;;38.23;11.95;;;;;;;-3.43;63.71;101129.18;1710704;82;21393;-64
2020/12/10 06:54:07;;;;;;;43.20;14.38;;;;;;;-3.36;63.82;101136.38;1710532;83;21418;-63
2020/12/10 06:56:49;;;;;;;56.73;17.00;;;;;;;-3.26;63.90;101138.89;1710436;84;21395;-62
2020/12/10 06:59:16;;;;;;;54.35;18.10;;;;;;;-3.26;63.90;101138.89;1698475;84;21423;-64
2020/12/10 07:01:44;;;;;;;95.77;30.48;;;;;;;-3.23;63.84;101140.95;1710471;82;21877;-62
2020/12/10 07:07:14;;;;;;;87.40;25.08;;;;;;;-3.17;63.80;101133.50;1710513;82;21897;-61
2020/12/10 07:09:55;;;;;;;212.38;44.00;;;;;;;-3.16;63.73;101142.78;1710414;84;21842;-63
2020/12/10 07:12:26;;;;;;;78.50;26.73;;;;;;;-3.15;63.79;101136.47;1710442;84;21272;-62
2020/12/10 07:15:16;;;;;;;34.10;12.65;;;;;;;-3.14;63.81;101130.62;1710462;82;21279;-63
2020/12/10 07:17:47;;;;;;;63.02;22.15;;;;;;;-3.13;63.88;101130.53;1710482;84;21259;-63
2020/12/10 07:20:14;;;;;;;31.75;11.93;;;;;;;-3.10;63.89;101126.80;1712497;83;21558;-63
2020/12/10 07:22:42;;;;;;;34.00;11.78;;;;;;;-3.10;64.00;101142.89;1713730;83;21894;-63
2020/12/10 07:25:09;;;;;;;23.55;8.88;;;;;;;-3.12;64.31;101136.28;1713695;83;21236;-63
2020/12/10 07:27:39;;;;;;;28.25;11.83;;;;;;;-3.14;64.25;101132.83;1713737;83;21882;-63
2020/12/10 07:30:13;;;;;;;27.52;9.70;;;;;;;-3.14;64.39;101138.67;1666966;83;21436;-63
2020/12/10 07:32:41;;;;;;;27.42;10.75;;;;;;;-3.14;64.39;101138.67;1713705;83;21160;-63
2020/12/10 07:35:09;;;;;;;38.28;13.03;;;;;;;-3.16;64.27;101141.44;1713745;83;21397;-65
2020/12/10 07:37:37;;;;;;;26.25;8.85;;;;;;;-3.16;64.21;101130.72;1713868;83;21171;-64
2020/12/10 07:40:16;;;;;;;30.45;9.58;;;;;;;-3.15;64.12;101135.13;1713721;83;21391;-64
2020/12/10 07:42:44;;;;;;;29.23;10.10;;;;;;;-3.14;64.08;101138.19;1713859;83;21401;-63
2020/12/10 07:45:17;;;;;;;18.30;7.33;;;;;;;-3.16;64.03;101136.08;1713826;83;21182;-62
2020/12/10 07:47:58;;;;;;;23.67;7.83;;;;;;;-3.17;64.07;101130.81;1713797;83;21461;-63
2020/12/10 07:50:26;;;;;;;54.00;15.70;;;;;;;-3.23;64.21;101138.27;1713684;83;21370;-64
2020/12/10 07:52:54;;;;;;;28.10;9.98;;;;;;;-3.23;64.42;101128.89;1713764;83;21422;-65
2020/12/10 07:55:26;;;;;;;31.52;9.05;;;;;;;-3.19;64.43;101134.92;1713681;83;21832;-63
2020/12/10 07:58:25;;;;;;;72.87;18.85;;;;;;;-3.19;64.43;101134.92;1650414;86;21471;-64
2020/12/10 08:00:53;;;;;;;36.83;10.58;;;;;;;-3.20;64.66;101126.50;1668536;85;21170;-64
2020/12/10 08:03:27;;;;;;;47.62;13.03;;;;;;;-3.18;64.91;101135.31;1667137;85;21786;-63
2020/12/10 08:06:10;;;;;;;76.53;19.05;;;;;;;-3.17;64.97;101129.48;1666787;85;21185;-63
2020/12/10 08:08:43;;;;;;;48.75;12.30;;;;;;;-3.14;65.09;101119.91;1643132;86;21205;-64
2020/12/10 08:11:18;;;;;;;89.72;24.02;;;;;;;-3.11;65.11;101119.72;1666989;86;21375;-63
2020/12/10 08:14:08;;;;;;;76.28;22.37;;;;;;;-3.09;65.16;101113.79;1667035;85;21606;-63
2020/12/10 08:16:44;;;;;;;68.57;20.05;;;;;;;-3.07;65.11;101108.72;1667010;84;21186;-65
2020/12/10 08:19:20;;;;;;;50.20;15.20;;;;;;;-3.03;65.13;101107.58;1666010;86;21574;-62
2020/12/10 08:21:49;;;;;;;46.23;15.13;;;;;;;-2.92;65.12;101101.08;1710345;82;21396;-62
2020/12/10 08:24:38;;;;;;;47.35;17.35;;;;;;;-2.92;65.12;101101.08;1710252;84;21477;-63
2020/12/10 08:27:05;;;;;;;34.15;12.40;;;;;;;-2.86;64.76;101090.45;1710408;82;21938;-64
2020/12/10 08:29:33;;;;;;;31.27;11.28;;;;;;;-2.89;64.59;101074.08;1710369;84;21900;-65
2020/12/10 08:32:10;;;;;;;26.95;10.63;;;;;;;-2.80;64.53;101075.80;1710373;82;21830;-64
2020/12/10 08:34:38;;;;;;;20.52;9.03;;;;;;;-2.76;64.26;101069.28;1710514;82;21966;-64
2020/12/10 08:37:09;;;;;;;33.75;12.47;;;;;;;-2.75;64.16;101079.05;1710888;81;21794;-65
2020/12/10 08:39:39;;;;;;;36.10;14.65;;;;;;;-2.75;64.00;101076.38;1736604;81;21947;-62
2020/12/10 08:42:07;;;;;;;42.25;12.90;;;;;;;-2.75;64.00;101076.38;1742561;82;21897;-63
2020/12/10 08:44:48;;;;;;;37.88;13.43;;;;;;;-2.66;64.00;101083.36;1743002;81;21189;-62
2020/12/10 08:47:25;;;;;;;32.40;12.18;;;;;;;-2.64;63.88;101076.56;1738887;82;21163;-63
2020/12/10 08:50:22;;;;;;;29.00;10.90;;;;;;;-2.61;63.67;101081.73;1735265;81;21588;-65
2020/12/10 08:52:39;;;;;;;27.40;9.88;;;;;;;-2.57;63.66;101080.61;1732687;81;21178;-66
2020/12/10 08:55:06;;;;;;;27.10;10.53;;;;;;;-2.51;63.39;101081.56;1717199;81;21162;-64
2020/12/10 08:57:49;;;;;;;27.40;10.45;;;;;;;-2.56;63.09;101067.09;1724544;81;21857;-65
2020/12/10 09:00:16;;;;;;;43.38;14.75;;;;;;;-2.59;63.04;101074.48;1740847;81;21937;-64
2020/12/10 09:02:44;;;;;;;60.28;19.92;;;;;;;-2.65;63.33;101077.52;1742812;81;21476;-64
2020/12/10 09:05:11;;;;;;;27.05;10.70;;;;;;;-2.65;63.18;101077.04;1720593;82;22035;-64
2020/12/10 09:07:38;;;;;;;58.40;20.17;;;;;;;-2.65;63.18;101077.04;1715107;82;21578;-66
2020/12/10 09:10:07;;;;;;;33.53;11.68;;;;;;;-2.64;63.14;101064.01;1722556;82;21220;-67
2020/12/10 09:12:34;;;;;;;37.08;13.22;;;;;;;-2.59;63.36;101062.41;1721545;82;21175;-67
2020/12/10 09:15:02;;;;;;;27.62;10.00;;;;;;;-2.57;63.19;101067.20;1722644;82;21390;-71
2020/12/10 09:17:30;;;;;;;36.17;13.10;;;;;;;-2.53;63.26;101059.81;1722301;82;21069;-66
2020/12/10 09:19:58;;;;;;;34.10;10.68;;;;;;;-2.53;63.26;101059.81;1723118;82;21132;-68
2020/12/10 09:22:26;;;;;;;35.95;12.07;;;;;;;-2.56;63.30;101059.05;1741211;81;21305;-68
2020/12/10 09:24:55;;;;;;;26.87;10.43;;;;;;;-2.54;63.38;101050.05;1741079;81;21108;-69
2020/12/10 09:27:24;;;;;;;67.60;22.20;;;;;;;-2.49;63.23;101047.93;1741075;81;21067;-67
2020/12/10 09:29:53;;;;;;;50.75;18.12;;;;;;;-2.49;63.23;101047.93;1740760;81;21122;-68
2020/12/10 09:32:25;;;;;;;45.50;15.10;;;;;;;-2.43;63.39;101048.39;1740721;81;21179;-68
2020/12/10 09:34:54;;;;;;;40.30;14.68;;;;;;;-2.43;63.39;101048.39;1741211;82;21314;-67
2020/12/10 09:37:21;;;;;;;71.57;23.67;;;;;;;-2.38;63.47;101048.09;1741284;81;21202;-68
2020/12/10 09:39:49;;;;;;;34.83;13.65;;;;;;;-2.35;63.52;101054.13;1740504;81;21112;-66
2020/12/10 09:42:17;;;;;;;46.00;15.72;;;;;;;-2.29;63.48;101048.36;1741281;81;21375;-68
2020/12/10 09:44:45;;;;;;;40.12;14.53;;;;;;;-2.24;63.52;101056.97;1700057;82;21813;-65
2020/12/10 09:47:12;;;;;;;38.33;13.48;;;;;;;-2.22;63.45;101047.96;1740557;81;21204;-68
2020/12/10 09:49:40;;;;;;;73.75;24.37;;;;;;;-2.15;63.43;101054.65;1741165;81;21915;-68
2020/12/10 09:52:08;;;;;;;38.48;13.65;;;;;;;-2.15;63.45;101054.65;1741015;81;21087;-63
2020/12/10 09:57:34;;;;;;;33.15;12.43;;;;;;;-2.16;63.47;101050.24;1741177;81;21551;-64
2020/12/10 10:00:05;;;;;;;32.15;11.55;;;;;;;-2.18;63.66;101043.63;1712367;82;21160;-63
2020/12/10 10:02:35;;;;;;;35.95;12.35;;;;;;;-2.19;63.86;101054.47;1709802;83;21173;-64
2020/12/10 10:05:02;;;;;;;38.70;12.68;;;;;;;-2.19;64.05;101049.10;1707905;82;21275;-63
2020/12/10 10:07:30;;;;;;;38.35;12.78;;;;;;;-2.20;64.26;101046.89;1712428;82;21342;-65
2020/12/10 10:09:58;;;;;;;28.47;10.45;;;;;;;-2.19;64.53;101043.25;1732487;81;21797;-65
2020/12/10 10:12:25;;;;;;;48.15;16.67;;;;;;;-2.19;64.68;101052.64;1736329;81;21068;-66
2020/12/10 10:14:54;;;;;;;31.20;11.00;;;;;;;-2.22;65.13;101030.03;1740784;81;21226;-65
2020/12/10 10:17:23;;;;;;;35.95;13.08;;;;;;;-2.22;65.13;101030.03;1740759;81;21811;-65
2020/12/10 10:19:51;;;;;;;31.45;11.12;;;;;;;-2.19;65.09;101033.86;1739932;81;21352;-65
2020/12/10 10:22:19;;;;;;;39.50;13.18;;;;;;;-2.20;65.11;101024.56;1739958;81;21163;-66
2020/12/10 10:24:47;;;;;;;37.05;11.97;;;;;;;-2.17;65.30;101020.33;1740830;81;21091;-61
2020/12/10 10:27:15;;;;;;;40.52;12.68;;;;;;;-2.13;65.37;101020.03;1739878;81;21742;-65
2020/12/10 10:29:43;;;;;;;23.73;9.93;;;;;;;-2.08;65.28;101025.09;1741620;81;21291;-68
2020/12/10 10:32:11;;;;;;;32.20;11.45;;;;;;;-2.08;65.21;101009.84;1724163;82;21440;-68
2020/12/10 10:34:38;;;;;;;27.77;8.93;;;;;;;-2.10;65.23;101010.91;1738978;81;21120;-68
2020/12/10 10:37:06;;;;;;;28.02;10.05;;;;;;;-2.10;65.26;101005.06;1707814;81;21323;-65
2020/12/10 10:39:33;;;;;;;31.07;10.03;;;;;;;-2.13;65.34;101001.72;1684474;83;21249;-68
2020/12/10 10:42:01;;;;;;;31.73;11.95;;;;;;;-2.14;65.45;101011.59;1684986;83;21042;-67
2020/12/10 10:44:29;;;;;;;30.27;9.68;;;;;;;-2.15;65.62;101013.91;1687596;82;21090;-68
2020/12/10 10:46:56;;;;;;;24.02;9.50;;;;;;;-2.12;65.63;101006.98;1740578;81;21713;-68
2020/12/10 10:49:23;;;;;;;29.42;9.75;;;;;;;-2.06;65.64;101005.72;1716362;82;21797;-68
2020/12/10 10:51:52;;;;;;;28.42;9.48;;;;;;;-2.04;65.61;100995.73;1704160;83;21281;-68
2020/12/10 10:54:19;;;;;;;25.80;9.90;;;;;;;-2.00;65.53;101010.20;1713400;82;21102;-65
2020/12/10 10:56:47;;;;;;;36.13;10.13;;;;;;;-2.00;65.33;101012.02;1708705;82;21861;-65
2020/12/10 10:59:14;;;;;;;51.60;16.82;;;;;;;-2.02;65.62;101012.12;1740434;81;21412;-64
2020/12/10 11:01:43;;;;;;;30.97;11.43;;;;;;;-2.00;65.75;101010.67;1737614;82;21279;-65
2020/12/10 11:04:11;;;;;;;34.67;11.30;;;;;;;-1.99;65.75;101014.60;1712576;82;21157;-62
2020/12/10 11:06:39;;;;;;;30.27;11.45;;;;;;;-1.97;65.81;101017.19;1699250;82;21114;-63
2020/12/10 11:09:07;;;;;;;27.02;10.32;;;;;;;-1.94;65.79;101019.22;1713808;82;21883;-63
2020/12/10 11:11:40;;;;;;;30.25;11.35;;;;;;;-1.89;65.79;101009.98;1709085;82;21115;-65
2020/12/10 11:14:10;;;;;;;31.45;11.60;;;;;;;-1.89;65.84;101012.20;1694777;82;21185;-68
2020/12/10 11:16:38;;;;;;;31.70;10.45;;;;;;;-1.89;66.04;101021.59;1732229;81;21904;-67
2020/12/10 11:19:05;;;;;;;35.25;12.35;;;;;;;-1.91;66.23;101014.13;1740676;81;21338;-67
2020/12/10 11:21:33;;;;;;;39.25;11.55;;;;;;;-1.89;66.33;101016.22;1732506;81;21744;-67
2020/12/10 11:24:00;;;;;;;34.80;12.07;;;;;;;-1.89;66.49;101018.05;1724558;82;21774;-68
2020/12/10 11:26:28;;;;;;;31.25;11.57;;;;;;;-1.86;66.77;101013.33;1724637;82;21138;-67
2020/12/10 11:28:56;;;;;;;33.40;12.37;;;;;;;-1.84;66.78;101009.20;1725260;82;21460;-67
2020/12/10 11:31:24;;;;;;;29.05;11.78;;;;;;;-1.86;66.83;101005.27;1714481;82;21042;-66